createdAt,value
2019-01-31T00:02:20.408Z,1.57
2019-01-31T00:05:00.816Z,1.80
2019-01-31T00:07:35.503Z,1.83
2019-01-31T00:10:08.779Z,1.80
2019-01-31T00:12:46.293Z,2.07
2019-01-31T00:15:20.499Z,2.10
2019-01-31T00:17:52.061Z,1.70
2019-01-31T00:20:26.549Z,1.83
2019-01-31T00:23:14.667Z,2.10
2019-01-31T00:25:51.928Z,2.10
2019-01-31T00:28:26.599Z,2.20
2019-01-31T00:31:19.363Z,2.07
2019-01-31T00:33:59.678Z,2.17
2019-01-31T00:36:34.253Z,1.90
2019-01-31T00:39:33.989Z,1.90
2019-01-31T00:42:14.584Z,2.00
2019-01-31T00:45:13.372Z,1.70
2019-01-31T00:47:50.628Z,1.90
2019-01-31T00:50:27.875Z,2.17
2019-01-31T00:53:20.268Z,2.20
2019-01-31T00:55:51.859Z,1.70
2019-01-31T00:58:41.623Z,2.20
2019-01-31T01:01:37.151Z,2.47
2019-01-31T01:04:31.377Z,1.87
2019-01-31T01:07:03.017Z,2.10
2019-01-31T01:09:40.301Z,2.40
2019-01-31T01:12:23.814Z,2.33
2019-01-31T01:14:55.440Z,2.13
2019-01-31T01:17:29.732Z,2.77
2019-01-31T01:20:12.681Z,2.10
2019-01-31T01:22:47.018Z,2.13
2019-01-31T01:25:47.301Z,2.33
2019-01-31T01:28:40.191Z,2.53
2019-01-31T01:31:11.795Z,2.40
2019-01-31T01:34:14.856Z,2.20
2019-01-31T01:36:55.264Z,2.50
2019-01-31T01:39:43.803Z,2.40
2019-01-31T01:42:30.409Z,2.53
2019-01-31T01:45:21.369Z,2.33
2019-01-31T01:47:52.973Z,2.63
2019-01-31T01:50:36.414Z,2.30
2019-01-31T01:53:33.808Z,2.50
2019-01-31T01:56:17.543Z,2.40
2019-01-31T01:58:49.084Z,2.60
2019-01-31T02:01:38.990Z,2.23
2019-01-31T02:04:16.387Z,2.37
2019-01-31T02:06:51.133Z,2.30
2019-01-31T02:09:30.203Z,2.70
2019-01-31T02:12:19.828Z,2.57
2019-01-31T02:15:03.384Z,2.30
2019-01-31T02:17:37.500Z,2.63
2019-01-31T02:20:15.025Z,2.63
2019-01-31T02:22:49.628Z,2.20
2019-01-31T02:25:21.186Z,2.70
2019-01-31T02:27:55.772Z,3.00
2019-01-31T02:30:30.556Z,3.20
2019-01-31T02:33:02.185Z,3.20
2019-01-31T02:35:33.722Z,3.50
2019-01-31T02:38:34.264Z,3.10
2019-01-31T02:41:17.390Z,2.60
2019-01-31T02:44:10.517Z,3.17
2019-01-31T02:46:58.626Z,3.03
2019-01-31T02:49:36.255Z,3.50
2019-01-31T02:52:16.722Z,3.80
2019-01-31T02:54:57.084Z,2.77
2019-01-31T02:57:31.299Z,3.40
2019-01-31T03:00:08.887Z,3.00
2019-01-31T03:03:01.775Z,2.60
2019-01-31T03:05:39.336Z,3.03
2019-01-31T03:08:19.742Z,2.80
2019-01-31T03:10:51.439Z,2.93
2019-01-31T03:13:23.075Z,2.93
2019-01-31T03:16:23.371Z,2.87
2019-01-31T03:19:09.969Z,2.80
2019-01-31T03:21:58.195Z,3.20
2019-01-31T03:24:38.799Z,3.07
2019-01-31T03:27:19.774Z,2.90
2019-01-31T03:30:03.586Z,2.80
2019-01-31T03:32:40.862Z,3.40
2019-01-31T03:35:21.426Z,3.30
2019-01-31T03:38:04.946Z,3.73
2019-01-31T03:40:45.396Z,4.23
2019-01-31T03:43:33.422Z,4.60
2019-01-31T03:46:05.072Z,5.50
2019-01-31T03:49:01.024Z,4.10
2019-01-31T03:52:02.861Z,3.33
2019-01-31T03:54:43.415Z,4.00
2019-01-31T03:57:29.931Z,3.57
2019-01-31T04:00:01.680Z,3.23
2019-01-31T04:02:45.204Z,2.93
2019-01-31T04:05:25.947Z,3.37
2019-01-31T04:07:54.706Z,3.30
2019-01-31T04:10:23.402Z,3.30
2019-01-31T04:12:52.498Z,3.27
2019-01-31T04:15:21.203Z,2.90
2019-01-31T04:17:49.766Z,2.70
2019-01-31T04:20:18.448Z,2.87
2019-01-31T04:22:47.154Z,2.90
2019-01-31T04:25:15.853Z,2.90
2019-01-31T04:27:44.598Z,2.70
2019-01-31T04:30:15.406Z,3.03
2019-01-31T04:32:44.114Z,3.37
2019-01-31T04:35:12.994Z,3.70
2019-01-31T04:37:41.700Z,3.87
2019-01-31T04:40:11.455Z,3.67
2019-01-31T04:42:40.094Z,3.07
2019-01-31T04:45:10.295Z,2.97
2019-01-31T04:47:39.034Z,3.00
2019-01-31T04:50:10.676Z,2.60
2019-01-31T04:52:39.418Z,2.50
2019-01-31T04:55:08.418Z,2.50
2019-01-31T04:57:37.130Z,2.47
2019-01-31T05:00:08.802Z,2.53
2019-01-31T05:02:37.517Z,2.13
2019-01-31T05:05:07.357Z,2.23
2019-01-31T05:07:36.057Z,2.20
2019-01-31T05:10:07.734Z,1.80
2019-01-31T05:12:36.395Z,2.10
2019-01-31T05:15:08.206Z,2.53
2019-01-31T05:17:36.966Z,2.03
2019-01-31T05:20:11.435Z,2.30
2019-01-31T05:22:40.197Z,2.70
2019-01-31T05:25:10.812Z,2.10
2019-01-31T05:27:39.506Z,2.30
2019-01-31T05:30:11.358Z,2.43
2019-01-31T05:32:40.081Z,2.07
2019-01-31T05:35:10.331Z,2.07
2019-01-31T05:37:38.957Z,1.80
2019-01-31T05:40:10.255Z,2.10
2019-01-31T05:42:38.934Z,1.83
2019-01-31T05:45:10.613Z,2.20
2019-01-31T05:47:39.350Z,2.40
2019-01-31T05:50:15.895Z,2.23
2019-01-31T05:52:44.578Z,2.77
2019-01-31T05:55:14.386Z,2.37
2019-01-31T05:57:43.149Z,2.77
2019-01-31T06:00:14.916Z,3.17
2019-01-31T06:02:43.642Z,3.80
2019-01-31T06:05:12.402Z,2.70
2019-01-31T06:07:41.143Z,2.57
2019-01-31T06:10:11.977Z,2.40
2019-01-31T06:12:40.728Z,2.03
2019-01-31T06:15:17.394Z,2.10
2019-01-31T06:17:46.367Z,2.53
2019-01-31T06:20:23.296Z,2.00
2019-01-31T06:22:52.604Z,1.97
2019-01-31T06:25:21.296Z,2.30
2019-01-31T06:27:49.995Z,2.03
2019-01-31T06:30:19.144Z,2.40
2019-01-31T06:32:47.868Z,2.33
2019-01-31T06:35:17.345Z,1.90
2019-01-31T06:37:46.535Z,2.10
2019-01-31T06:40:20.131Z,1.90
2019-01-31T06:42:49.046Z,1.73
2019-01-31T06:45:19.698Z,2.10
2019-01-31T06:47:48.412Z,2.20
2019-01-31T06:50:17.367Z,2.30
2019-01-31T06:52:46.068Z,2.10
2019-01-31T06:55:15.566Z,2.23
2019-01-31T06:57:44.311Z,2.27
2019-01-31T07:00:21.526Z,2.53
2019-01-31T07:02:50.262Z,2.23
2019-01-31T07:05:18.983Z,2.40
2019-01-31T07:07:47.686Z,2.13
2019-01-31T07:10:21.574Z,2.73
2019-01-31T07:12:50.283Z,2.57
2019-01-31T07:15:18.990Z,2.47
2019-01-31T07:17:47.818Z,3.20
2019-01-31T07:20:17.514Z,2.40
2019-01-31T07:22:46.356Z,2.57
2019-01-31T07:25:20.506Z,2.60
2019-01-31T07:27:49.142Z,2.57
2019-01-31T07:30:20.175Z,2.93
2019-01-31T07:32:49.001Z,2.33
2019-01-31T07:35:18.118Z,2.70
2019-01-31T07:37:46.929Z,2.53
2019-01-31T07:40:18.307Z,2.40
2019-01-31T07:42:47.005Z,2.20
2019-01-31T07:45:19.105Z,2.43
2019-01-31T07:47:47.858Z,2.73
2019-01-31T07:50:18.662Z,2.10
2019-01-31T07:52:47.379Z,2.80
2019-01-31T07:55:16.053Z,2.50
2019-01-31T07:57:44.683Z,2.30
2019-01-31T08:00:18.622Z,2.47
2019-01-31T08:02:47.379Z,2.50
2019-01-31T08:05:17.841Z,2.60
2019-01-31T08:07:46.896Z,2.63
2019-01-31T08:10:30.381Z,2.90
2019-01-31T08:12:59.398Z,2.97
2019-01-31T08:15:28.111Z,2.97
2019-01-31T08:17:56.738Z,2.67
2019-01-31T08:20:25.410Z,2.50
2019-01-31T08:22:54.120Z,3.30
2019-01-31T08:25:24.542Z,3.57
2019-01-31T08:27:54.765Z,3.00
2019-01-31T08:30:32.065Z,2.77
2019-01-31T08:33:00.901Z,2.63
2019-01-31T08:35:29.607Z,3.00
2019-01-31T08:37:58.306Z,3.23
2019-01-31T08:40:27.053Z,2.90
2019-01-31T08:42:55.762Z,3.10
2019-01-31T08:45:24.466Z,2.80
2019-01-31T08:47:53.202Z,3.10
2019-01-31T08:50:27.553Z,3.30
2019-01-31T08:52:55.130Z,2.50
2019-01-31T08:55:23.876Z,3.27
2019-01-31T08:57:52.586Z,3.40
2019-01-31T09:00:23.594Z,3.13
2019-01-31T09:02:52.776Z,2.53
2019-01-31T09:05:21.482Z,3.37
2019-01-31T09:07:50.186Z,2.97
2019-01-31T09:10:21.517Z,3.10
2019-01-31T09:12:50.240Z,3.50
2019-01-31T09:15:21.341Z,3.73
2019-01-31T09:17:50.186Z,3.03
2019-01-31T09:20:24.851Z,3.17
2019-01-31T09:22:59.327Z,3.50
2019-01-31T09:25:56.573Z,4.20
2019-01-31T09:28:30.965Z,4.30
2019-01-31T09:31:19.133Z,3.67
2019-01-31T09:33:59.829Z,3.60
2019-01-31T09:36:43.538Z,4.10
2019-01-31T09:39:31.766Z,3.63
2019-01-31T09:42:03.417Z,3.30
2019-01-31T09:44:50.366Z,4.33
2019-01-31T09:47:28.142Z,3.80
2019-01-31T09:49:59.815Z,3.43
2019-01-31T09:52:34.383Z,3.57
2019-01-31T09:55:14.896Z,3.40
2019-01-31T09:57:49.444Z,2.73
2019-01-31T10:00:27.615Z,4.03
2019-01-31T10:03:03.038Z,3.63
2019-01-31T10:05:54.520Z,5.33
2019-01-31T10:08:37.713Z,3.70
2019-01-31T10:11:21.361Z,2.87
2019-01-31T10:14:01.384Z,2.87
2019-01-31T10:16:41.798Z,3.47
2019-01-31T10:19:42.139Z,2.67
2019-01-31T10:22:18.895Z,3.07
2019-01-31T10:24:54.593Z,3.10
2019-01-31T10:27:32.440Z,2.90
2019-01-31T10:30:30.016Z,2.53
2019-01-31T10:33:05.840Z,3.17
2019-01-31T10:36:12.491Z,3.27
2019-01-31T10:39:04.727Z,3.30
2019-01-31T10:41:45.422Z,2.70
2019-01-31T10:44:22.724Z,3.37
2019-01-31T10:47:00.267Z,2.93
2019-01-31T10:49:34.631Z,3.20
2019-01-31T10:52:08.766Z,3.27
2019-01-31T10:54:40.855Z,3.10
2019-01-31T10:57:24.178Z,2.97
2019-01-31T11:00:06.497Z,6.53
2019-01-31T11:02:47.963Z,7.00
2019-01-31T11:05:22.791Z,3.73
2019-01-31T11:08:18.197Z,6.23
2019-01-31T11:10:52.541Z,4.73
2019-01-31T11:13:49.591Z,3.40
2019-01-31T11:16:45.638Z,2.67
2019-01-31T11:19:23.114Z,2.10
2019-01-31T11:22:19.179Z,2.27
2019-01-31T11:25:05.932Z,2.20
2019-01-31T11:27:46.084Z,2.03
2019-01-31T11:30:29.898Z,2.23
2019-01-31T11:33:22.630Z,2.40
2019-01-31T11:36:12.669Z,3.43
2019-01-31T11:38:47.005Z,3.47
2019-01-31T11:41:34.977Z,3.30
2019-01-31T11:44:09.642Z,2.60
2019-01-31T11:46:41.301Z,2.70
2019-01-31T11:49:12.958Z,3.10
2019-01-31T11:52:09.087Z,2.63
2019-01-31T11:54:57.430Z,2.00
2019-01-31T11:57:51.815Z,2.00
2019-01-31T12:00:22.621Z,2.03
2019-01-31T12:02:55.051Z,3.40
2019-01-31T12:05:21.599Z,2.47
2019-01-31T12:07:50.425Z,2.00
2019-01-31T12:10:19.195Z,2.20
2019-01-31T12:12:47.900Z,2.70
2019-01-31T12:15:16.737Z,1.80
2019-01-31T12:17:45.297Z,1.90
2019-01-31T12:20:16.405Z,2.50
2019-01-31T12:22:46.323Z,2.20
2019-01-31T12:25:14.998Z,2.23
2019-01-31T12:27:43.662Z,2.50
2019-01-31T12:30:21.091Z,2.10
2019-01-31T12:32:49.797Z,2.40
2019-01-31T12:35:18.520Z,2.47
2019-01-31T12:37:47.319Z,1.77
2019-01-31T12:40:17.924Z,2.13
2019-01-31T12:42:47.268Z,2.23
2019-01-31T12:45:18.405Z,2.03
2019-01-31T12:47:47.220Z,2.03
2019-01-31T12:50:18.525Z,2.10
2019-01-31T12:52:47.381Z,1.90
2019-01-31T12:55:16.017Z,2.30
2019-01-31T12:57:44.730Z,1.93
2019-01-31T13:00:24.976Z,1.90
2019-01-31T13:02:53.886Z,2.00
2019-01-31T13:05:22.594Z,2.00
2019-01-31T13:07:51.622Z,2.10
2019-01-31T13:10:20.401Z,1.90
2019-01-31T13:12:49.610Z,1.97
2019-01-31T13:15:18.538Z,2.30
2019-01-31T13:17:47.550Z,2.10
2019-01-31T13:20:22.590Z,2.30
2019-01-31T13:22:53.389Z,2.17
2019-01-31T13:25:23.284Z,2.53
2019-01-31T13:27:52.119Z,2.73
2019-01-31T13:30:22.609Z,2.10
2019-01-31T13:32:53.219Z,2.73
2019-01-31T13:35:22.078Z,2.40
2019-01-31T13:37:50.788Z,2.40
2019-01-31T13:40:21.499Z,2.50
2019-01-31T13:42:51.042Z,2.40
2019-01-31T13:45:38.998Z,2.20
2019-01-31T13:48:09.323Z,2.40
2019-01-31T13:50:38.014Z,2.60
2019-01-31T13:53:07.704Z,2.30
2019-01-31T13:55:36.849Z,2.80
2019-01-31T13:58:05.539Z,2.30
2019-01-31T14:00:34.224Z,2.27
2019-01-31T14:03:02.973Z,2.10
2019-01-31T14:05:31.595Z,2.10
2019-01-31T14:08:00.281Z,2.33
2019-01-31T14:10:29.001Z,2.60
2019-01-31T14:12:57.558Z,2.10
2019-01-31T14:15:34.008Z,2.13
2019-01-31T14:18:02.208Z,2.37
2019-01-31T14:20:30.831Z,2.50
2019-01-31T14:22:59.521Z,2.40
2019-01-31T14:25:28.456Z,2.17
2019-01-31T14:27:57.144Z,2.10
2019-01-31T14:30:31.200Z,2.33
2019-01-31T14:33:00.540Z,2.37
2019-01-31T14:35:29.925Z,2.43
2019-01-31T14:37:58.563Z,2.13
2019-01-31T14:40:27.472Z,1.87
2019-01-31T14:42:56.154Z,2.70
2019-01-31T14:45:24.845Z,2.60
2019-01-31T14:47:55.717Z,2.63
2019-01-31T14:50:26.877Z,2.13
2019-01-31T14:52:56.999Z,2.10
2019-01-31T14:55:25.841Z,1.80
2019-01-31T14:57:54.935Z,1.60
2019-01-31T15:00:29.647Z,2.10
2019-01-31T15:02:58.199Z,2.33
2019-01-31T15:05:46.194Z,1.93
2019-01-31T15:08:14.812Z,2.00
2019-01-31T15:10:45.820Z,1.60
2019-01-31T15:13:13.729Z,1.97
2019-01-31T15:15:42.417Z,2.00
2019-01-31T15:18:11.202Z,1.80
2019-01-31T15:20:42.383Z,1.70
2019-01-31T15:23:11.074Z,1.50
2019-01-31T15:25:39.768Z,1.43
2019-01-31T15:28:08.585Z,1.70
2019-01-31T15:30:37.774Z,1.60
2019-01-31T15:33:09.128Z,1.53
2019-01-31T15:35:37.948Z,1.50
2019-01-31T15:38:07.153Z,1.60
2019-01-31T15:40:42.297Z,1.73
2019-01-31T15:43:11.092Z,1.40
2019-01-31T15:45:39.773Z,2.00
2019-01-31T15:48:10.826Z,2.30
2019-01-31T15:50:39.669Z,4.13
2019-01-31T15:53:08.365Z,6.63
2019-01-31T15:55:37.397Z,6.93
2019-01-31T15:58:06.885Z,7.73
2019-01-31T16:00:44.965Z,7.70
2019-01-31T16:03:15.857Z,8.33
2019-01-31T16:05:44.570Z,6.57
2019-01-31T16:08:13.480Z,5.73
2019-01-31T16:10:42.197Z,3.67
2019-01-31T16:13:11.214Z,3.33
2019-01-31T16:15:40.331Z,4.13
2019-01-31T16:18:10.682Z,3.57
2019-01-31T16:20:39.401Z,4.63
2019-01-31T16:23:08.937Z,5.60
2019-01-31T16:25:37.632Z,4.83
2019-01-31T16:28:06.322Z,5.07
2019-01-31T16:30:35.393Z,4.53
2019-01-31T16:33:04.590Z,3.60
2019-01-31T16:35:33.325Z,4.07
2019-01-31T16:38:02.077Z,3.07
2019-01-31T16:40:30.816Z,2.90
2019-01-31T16:42:59.713Z,2.53
2019-01-31T16:45:28.833Z,2.63
2019-01-31T16:47:57.524Z,3.00
2019-01-31T16:50:26.604Z,3.33
2019-01-31T16:52:55.329Z,3.27
2019-01-31T16:55:30.805Z,3.00
2019-01-31T16:57:59.852Z,2.93
2019-01-31T17:00:31.224Z,2.80
2019-01-31T17:03:00.152Z,3.40
2019-01-31T17:05:30.876Z,3.27
2019-01-31T17:07:59.854Z,3.87
2019-01-31T17:10:28.669Z,5.47
2019-01-31T17:12:57.631Z,6.20
2019-01-31T17:15:26.829Z,6.10
2019-01-31T17:17:55.531Z,5.27
2019-01-31T17:20:38.998Z,6.63
2019-01-31T17:23:07.713Z,6.00
2019-01-31T17:25:36.410Z,6.40
2019-01-31T17:28:05.314Z,7.30
2019-01-31T17:30:33.942Z,8.40
2019-01-31T17:33:02.578Z,7.10
2019-01-31T17:35:31.647Z,6.23
2019-01-31T17:38:00.270Z,6.33
2019-01-31T17:40:31.745Z,6.53
2019-01-31T17:43:00.410Z,6.27
2019-01-31T17:45:30.826Z,5.93
2019-01-31T17:47:59.824Z,6.43
2019-01-31T17:50:28.998Z,5.93
2019-01-31T17:52:57.557Z,7.63
2019-01-31T17:55:27.552Z,5.90
2019-01-31T17:57:56.797Z,5.13
2019-01-31T18:00:35.137Z,4.63
2019-01-31T18:03:04.173Z,5.70
2019-01-31T18:05:32.865Z,5.33
2019-01-31T18:08:01.421Z,5.77
2019-01-31T18:10:30.243Z,5.03
2019-01-31T18:12:58.867Z,6.23
2019-01-31T18:15:27.929Z,6.40
2019-01-31T18:17:56.517Z,6.30
2019-01-31T18:20:25.313Z,5.90
2019-01-31T18:22:54.014Z,5.40
2019-01-31T18:25:22.673Z,4.13
2019-01-31T18:27:53.227Z,4.23
2019-01-31T18:30:27.016Z,4.47
2019-01-31T18:32:55.779Z,4.77
2019-01-31T18:35:24.573Z,5.03
2019-01-31T18:37:53.269Z,4.33
2019-01-31T18:40:27.542Z,4.10
2019-01-31T18:42:56.242Z,4.50
2019-01-31T18:45:26.733Z,5.23
2019-01-31T18:47:55.558Z,5.57
2019-01-31T18:50:30.143Z,6.30
2019-01-31T18:52:58.829Z,4.20
2019-01-31T18:55:28.466Z,5.07
2019-01-31T18:57:57.366Z,4.23
2019-01-31T19:00:31.699Z,4.87
2019-01-31T19:03:00.877Z,5.03
2019-01-31T19:05:30.074Z,4.27
2019-01-31T19:07:58.764Z,4.77
2019-01-31T19:10:27.494Z,4.73
2019-01-31T19:12:56.184Z,6.00
2019-01-31T19:15:26.178Z,5.17
2019-01-31T19:18:05.514Z,5.10
2019-01-31T19:20:27.176Z,6.53
2019-01-31T19:22:56.781Z,6.10
2019-01-31T19:25:25.610Z,6.20
2019-01-31T19:27:54.161Z,5.67
2019-01-31T19:30:28.449Z,4.93
2019-01-31T19:32:57.109Z,4.60
2019-01-31T19:35:25.796Z,4.70
2019-01-31T19:38:01.569Z,4.20
2019-01-31T19:40:27.440Z,4.40
2019-01-31T19:42:56.125Z,4.53
2019-01-31T19:45:33.301Z,5.43
2019-01-31T19:48:02.005Z,5.40
2019-01-31T19:50:30.697Z,7.80
2019-01-31T19:52:59.424Z,5.40
2019-01-31T19:55:28.121Z,4.73
2019-01-31T19:57:56.668Z,5.40
2019-01-31T20:00:27.019Z,5.00
2019-01-31T20:02:55.952Z,4.70
2019-01-31T20:05:24.806Z,4.57
2019-01-31T20:07:53.839Z,4.77
2019-01-31T20:10:24.631Z,5.10
2019-01-31T20:12:53.615Z,4.13
2019-01-31T20:15:22.886Z,4.83
2019-01-31T20:17:51.590Z,5.30
2019-01-31T20:20:25.426Z,5.17
2019-01-31T20:22:55.200Z,5.43
2019-01-31T20:25:25.549Z,4.93
2019-01-31T20:27:54.243Z,5.33
2019-01-31T20:30:25.446Z,6.00
2019-01-31T20:32:54.637Z,4.87
2019-01-31T20:35:24.130Z,5.17
2019-01-31T20:37:53.070Z,5.03
2019-01-31T20:40:24.513Z,4.83
2019-01-31T20:42:53.204Z,4.90
2019-01-31T20:45:21.945Z,5.47
2019-01-31T20:47:50.636Z,5.77
2019-01-31T20:50:21.830Z,5.20
2019-01-31T20:52:50.654Z,5.20
2019-01-31T20:55:19.412Z,4.67
2019-01-31T20:57:48.102Z,5.00
2019-01-31T21:00:24.578Z,6.50
2019-01-31T21:02:53.265Z,5.90
2019-01-31T21:05:22.017Z,4.73
2019-01-31T21:07:50.745Z,4.70
2019-01-31T21:10:19.537Z,5.37
2019-01-31T21:12:48.171Z,5.80
2019-01-31T21:15:19.437Z,5.23
2019-01-31T21:17:48.129Z,5.07
2019-01-31T21:20:19.308Z,5.87
2019-01-31T21:22:48.531Z,5.30
2019-01-31T21:25:18.521Z,5.57
2019-01-31T21:27:47.911Z,5.57
2019-01-31T21:30:19.508Z,6.50
2019-01-31T21:32:48.126Z,5.20
2019-01-31T21:35:17.369Z,5.80
2019-01-31T21:37:46.689Z,5.13
2019-01-31T21:40:39.663Z,5.13
2019-01-31T21:43:08.376Z,5.27
2019-01-31T21:45:37.269Z,5.77
2019-01-31T21:48:06.568Z,6.33
2019-01-31T21:50:35.623Z,6.67
2019-01-31T21:53:04.495Z,6.97
2019-01-31T21:55:33.113Z,7.23
2019-01-31T21:58:01.849Z,6.00
2019-01-31T22:00:34.953Z,6.37
2019-01-31T22:03:05.685Z,5.83
2019-01-31T22:05:34.378Z,5.70
2019-01-31T22:08:03.073Z,5.37
2019-01-31T22:10:31.816Z,5.90
2019-01-31T22:13:02.801Z,6.03
2019-01-31T22:15:33.513Z,5.30
2019-01-31T22:18:02.648Z,6.23
2019-01-31T22:20:31.332Z,6.50
2019-01-31T22:23:00.028Z,6.53
2019-01-31T22:25:29.107Z,6.30
2019-01-31T22:27:57.729Z,6.50
2019-01-31T22:30:29.365Z,6.20
2019-01-31T22:32:58.027Z,6.10
2019-01-31T22:35:26.721Z,5.97
2019-01-31T22:37:55.420Z,6.57
2019-01-31T22:40:24.076Z,6.63
2019-01-31T22:42:52.767Z,6.40
2019-01-31T22:45:25.186Z,6.77
2019-01-31T22:47:54.304Z,6.90
2019-01-31T22:50:23.907Z,6.30
2019-01-31T22:52:52.599Z,5.47
2019-01-31T22:55:26.452Z,5.73
2019-01-31T22:57:55.179Z,5.70
2019-01-31T23:00:31.240Z,5.20
2019-01-31T23:02:59.929Z,5.17
2019-01-31T23:05:28.627Z,5.03
2019-01-31T23:07:57.464Z,6.43
2019-01-31T23:10:26.189Z,7.23
2019-01-31T23:12:54.707Z,5.83
2019-01-31T23:15:23.520Z,4.80
2019-01-31T23:17:52.141Z,5.10
2019-01-31T23:20:20.834Z,5.40
2019-01-31T23:22:49.438Z,5.60
2019-01-31T23:25:18.130Z,5.30
2019-01-31T23:27:46.759Z,7.07
2019-01-31T23:30:18.281Z,5.67
2019-01-31T23:32:46.829Z,5.93
2019-01-31T23:35:15.525Z,5.20
2019-01-31T23:37:44.265Z,5.37
2019-01-31T23:40:14.260Z,5.10
2019-01-31T23:42:43.053Z,4.37
2019-01-31T23:45:16.672Z,4.23
2019-01-31T23:47:48.979Z,3.80
2019-01-31T23:50:15.701Z,4.33
2019-01-31T23:52:44.353Z,3.77
2019-01-31T23:55:15.422Z,4.03
2019-01-31T23:57:44.165Z,3.90
